This is the latest recevied weather packets stored in our database for station/object Ostrach. If no packets are shown the sender has not sent any weather packets the latest 10 day(s).
| Time | Temp. | Humidity | Pressure | Rain* | Wind** | Luminosity | Snow |
|---|---|---|---|---|---|---|---|
| 1788667329 | 9.44° C | 92% | 1023.5 hPa | 0 mm | - | - | - |
| 1788665529 | 11.11° C | 93% | 1023.4 hPa | 0 mm | - | - | - |
| 1788663729 | 11.11° C | 93% | 1023.3 hPa | 0 mm | - | - | - |
| 1788661929 | 11.67° C | 94% | 1023.1 hPa | 0 mm | - | - | - |
| 1788660130 | 11.11° C | 94% | 1023.1 hPa | 0 mm | - | - | - |
| 1788658330 | 10.56° C | 92% | 1023 hPa | 0 mm | - | - | - |
| 1788656563 | 10.56° C | 91% | 1022.9 hPa | 0 mm | - | - | - |
| 1788654731 | 10.56° C | 91% | 1022.9 hPa | 0 mm | - | - | - |
| 1788652932 | 11.11° C | 91% | 1023.1 hPa | 0 mm | - | - | - |
| 1788651131 | 11.67° C | 91% | 1023 hPa | 0 mm | - | - | - |
| 1788649332 | 11.67° C | 90% | 1023 hPa | 0 mm | - | - | - |
| 1788647531 | 12.22° C | 90% | 1023 hPa | 0 mm | - | - | - |
| 1788645731 | 12.78° C | 90% | 1022.8 hPa | 1.52 mm | - | - | - |
| 1788643931 | 13.33° C | 89% | 1022.6 hPa | 1.52 mm | - | - | - |
| 1788642131 | 13.89° C | 88% | 1022.4 hPa | 1.52 mm | - | - | - |
| 1788640333 | 14.44° C | 87% | 1022.2 hPa | 1.52 mm | - | - | - |
| 1788638531 | 15° C | 86% | 1021.9 hPa | 1.52 mm | - | - | - |
| 1788636732 | 16.11° C | 84% | 1021.7 hPa | 1.52 mm | - | - | - |
| 1788634931 | 16.67° C | 82% | 1021.4 hPa | 1.52 mm | - | - | - |
| 1788633130 | 17.78° C | 79% | 1020.9 hPa | 1.52 mm | - | - | - |
| 1788631331 | 19.44° C | 74% | 1020.5 hPa | 1.52 mm | - | - | - |
| 1788629559 | 20.56° C | 70% | 1020 hPa | 1.52 mm | - | - | - |
| 1788627730 | 21.67° C | 63% | 1019.8 hPa | 1.52 mm | - | - | - |
| 1788625931 | 22.22° C | 59% | 1019.6 hPa | 1.52 mm | - | - | - |
| 1788624131 | 21.67° C | 62% | 1019.5 hPa | 1.52 mm | - | - | - |
* Rain since midnight (hover to see other rain measurements)
** Current wind speed in m/s (hover to see current wind gust speed)